sensor_id;sensor_type;location;lat;lon;timestamp;temperature;humidity
16441;DHT22;8330;-33.858;151.184;2023-05-07T00:02:15;13.30;99.90
16441;DHT22;8330;-33.858;151.184;2023-05-07T00:04:46;13.20;99.90
16441;DHT22;8330;-33.858;151.184;2023-05-07T00:07:17;13.20;99.90
16441;DHT22;8330;-33.858;151.184;2023-05-07T00:09:48;13.20;99.90
16441;DHT22;8330;-33.858;151.184;2023-05-07T00:12:19;13.20;99.90
16441;DHT22;8330;-33.858;151.184;2023-05-07T00:14:52;13.10;99.90
16441;DHT22;8330;-33.858;151.184;2023-05-07T00:17:23;13.10;99.90
16441;DHT22;8330;-33.858;151.184;2023-05-07T00:19:54;13.20;99.90
16441;DHT22;8330;-33.858;151.184;2023-05-07T00:22:25;13.20;99.90
16441;DHT22;8330;-33.858;151.184;2023-05-07T00:24:58;13.20;99.90
16441;DHT22;8330;-33.858;151.184;2023-05-07T00:27:29;13.10;99.90
16441;DHT22;8330;-33.858;151.184;2023-05-07T00:30:02;13.10;99.90
16441;DHT22;8330;-33.858;151.184;2023-05-07T00:32:33;13.20;99.90
16441;DHT22;8330;-33.858;151.184;2023-05-07T00:35:05;13.20;99.90
16441;DHT22;8330;-33.858;151.184;2023-05-07T00:37:36;13.40;99.90
16441;DHT22;8330;-33.858;151.184;2023-05-07T00:40:08;13.30;99.90
16441;DHT22;8330;-33.858;151.184;2023-05-07T00:42:39;13.30;99.90
16441;DHT22;8330;-33.858;151.184;2023-05-07T00:45:17;13.20;99.90
16441;DHT22;8330;-33.858;151.184;2023-05-07T00:47:48;13.30;99.90
16441;DHT22;8330;-33.858;151.184;2023-05-07T00:50:19;13.20;99.90
16441;DHT22;8330;-33.858;151.184;2023-05-07T00:52:50;13.20;99.90
16441;DHT22;8330;-33.858;151.184;2023-05-07T00:55:24;13.30;99.90
16441;DHT22;8330;-33.858;151.184;2023-05-07T00:57:55;13.50;99.90
16441;DHT22;8330;-33.858;151.184;2023-05-07T01:00:29;13.60;99.90
16441;DHT22;8330;-33.858;151.184;2023-05-07T01:03:00;13.70;99.90
16441;DHT22;8330;-33.858;151.184;2023-05-07T01:05:31;13.70;99.90
16441;DHT22;8330;-33.858;151.184;2023-05-07T01:08:03;13.70;99.90
16441;DHT22;8330;-33.858;151.184;2023-05-07T01:10:35;13.80;99.90
16441;DHT22;8330;-33.858;151.184;2023-05-07T01:13:06;13.80;99.90
16441;DHT22;8330;-33.858;151.184;2023-05-07T01:15:40;13.90;99.90
16441;DHT22;8330;-33.858;151.184;2023-05-07T01:18:11;14.00;99.90
16441;DHT22;8330;-33.858;151.184;2023-05-07T01:20:43;14.00;99.90
16441;DHT22;8330;-33.858;151.184;2023-05-07T01:23:16;14.00;99.90
16441;DHT22;8330;-33.858;151.184;2023-05-07T01:25:53;14.00;99.90
16441;DHT22;8330;-33.858;151.184;2023-05-07T01:28:24;14.00;99.90
16441;DHT22;8330;-33.858;151.184;2023-05-07T01:30:57;14.00;99.90
16441;DHT22;8330;-33.858;151.184;2023-05-07T01:33:33;14.00;99.90
16441;DHT22;8330;-33.858;151.184;2023-05-07T01:36:06;13.90;99.90
16441;DHT22;8330;-33.858;151.184;2023-05-07T01:38:41;13.80;99.90
16441;DHT22;8330;-33.858;151.184;2023-05-07T01:41:13;13.70;99.90
16441;DHT22;8330;-33.858;151.184;2023-05-07T01:43:44;13.60;99.90
16441;DHT22;8330;-33.858;151.184;2023-05-07T01:46:16;13.50;99.90
16441;DHT22;8330;-33.858;151.184;2023-05-07T01:48:48;13.70;99.90
16441;DHT22;8330;-33.858;151.184;2023-05-07T01:51:20;13.90;99.90
16441;DHT22;8330;-33.858;151.184;2023-05-07T01:53:53;14.10;99.90
16441;DHT22;8330;-33.858;151.184;2023-05-07T01:56:25;14.30;99.90
16441;DHT22;8330;-33.858;151.184;2023-05-07T01:58:57;14.30;99.90
16441;DHT22;8330;-33.858;151.184;2023-05-07T02:01:28;14.30;99.90
16441;DHT22;8330;-33.858;151.184;2023-05-07T02:04:00;14.40;99.90
16441;DHT22;8330;-33.858;151.184;2023-05-07T02:06:31;14.10;99.90
16441;DHT22;8330;-33.858;151.184;2023-05-07T02:09:04;14.20;99.90
16441;DHT22;8330;-33.858;151.184;2023-05-07T02:11:36;14.10;99.90
16441;DHT22;8330;-33.858;151.184;2023-05-07T02:14:09;14.20;99.90
16441;DHT22;8330;-33.858;151.184;2023-05-07T02:16:40;14.50;99.90
16441;DHT22;8330;-33.858;151.184;2023-05-07T02:19:11;14.60;99.90
16441;DHT22;8330;-33.858;151.184;2023-05-07T02:21:44;14.90;99.90
16441;DHT22;8330;-33.858;151.184;2023-05-07T02:24:17;15.10;99.90
16441;DHT22;8330;-33.858;151.184;2023-05-07T02:26:48;15.10;99.90
16441;DHT22;8330;-33.858;151.184;2023-05-07T02:29:20;15.30;99.90
16441;DHT22;8330;-33.858;151.184;2023-05-07T02:31:51;15.50;99.90
16441;DHT22;8330;-33.858;151.184;2023-05-07T02:34:23;15.40;99.90
16441;DHT22;8330;-33.858;151.184;2023-05-07T02:36:54;15.60;99.90
16441;DHT22;8330;-33.858;151.184;2023-05-07T02:39:27;15.50;99.90
16441;DHT22;8330;-33.858;151.184;2023-05-07T02:41:59;15.60;99.90
16441;DHT22;8330;-33.858;151.184;2023-05-07T02:44:32;15.70;99.90
16441;DHT22;8330;-33.858;151.184;2023-05-07T02:47:04;15.90;99.90
16441;DHT22;8330;-33.858;151.184;2023-05-07T02:49:36;15.90;99.90
16441;DHT22;8330;-33.858;151.184;2023-05-07T02:52:07;16.10;99.90
16441;DHT22;8330;-33.858;151.184;2023-05-07T02:54:40;16.20;99.90
16441;DHT22;8330;-33.858;151.184;2023-05-07T02:57:11;16.10;99.90
16441;DHT22;8330;-33.858;151.184;2023-05-07T02:59:43;16.20;99.90
16441;DHT22;8330;-33.858;151.184;2023-05-07T03:02:14;16.10;99.90
16441;DHT22;8330;-33.858;151.184;2023-05-07T03:04:45;16.00;99.90
16441;DHT22;8330;-33.858;151.184;2023-05-07T03:07:16;15.60;99.90
16441;DHT22;8330;-33.858;151.184;2023-05-07T03:09:50;15.00;99.90
16441;DHT22;8330;-33.858;151.184;2023-05-07T03:12:21;14.20;99.90
16441;DHT22;8330;-33.858;151.184;2023-05-07T03:14:52;13.60;99.90
16441;DHT22;8330;-33.858;151.184;2023-05-07T03:17:23;13.10;99.90
16441;DHT22;8330;-33.858;151.184;2023-05-07T03:19:55;12.90;99.90
16441;DHT22;8330;-33.858;151.184;2023-05-07T03:22:26;12.80;99.90
16441;DHT22;8330;-33.858;151.184;2023-05-07T03:24:59;12.90;99.90
16441;DHT22;8330;-33.858;151.184;2023-05-07T03:27:30;12.90;99.90
16441;DHT22;8330;-33.858;151.184;2023-05-07T03:30:01;13.00;99.90
16441;DHT22;8330;-33.858;151.184;2023-05-07T03:32:33;13.30;99.90
16441;DHT22;8330;-33.858;151.184;2023-05-07T03:35:05;13.50;99.90
16441;DHT22;8330;-33.858;151.184;2023-05-07T03:37:36;13.70;99.90
16441;DHT22;8330;-33.858;151.184;2023-05-07T03:40:10;13.90;99.90
16441;DHT22;8330;-33.858;151.184;2023-05-07T03:42:42;14.10;99.90
16441;DHT22;8330;-33.858;151.184;2023-05-07T03:45:13;14.20;99.90
16441;DHT22;8330;-33.858;151.184;2023-05-07T03:47:44;14.40;99.90
16441;DHT22;8330;-33.858;151.184;2023-05-07T03:50:16;14.60;99.90
16441;DHT22;8330;-33.858;151.184;2023-05-07T03:52:47;14.60;99.90
16441;DHT22;8330;-33.858;151.184;2023-05-07T03:55:21;14.60;99.90
16441;DHT22;8330;-33.858;151.184;2023-05-07T03:57:53;14.50;99.90
16441;DHT22;8330;-33.858;151.184;2023-05-07T04:00:24;14.50;99.90
16441;DHT22;8330;-33.858;151.184;2023-05-07T04:02:56;14.70;99.90
16441;DHT22;8330;-33.858;151.184;2023-05-07T04:05:27;14.90;99.90
16441;DHT22;8330;-33.858;151.184;2023-05-07T04:07:59;15.00;99.90
16441;DHT22;8330;-33.858;151.184;2023-05-07T04:10:33;15.00;99.90
16441;DHT22;8330;-33.858;151.184;2023-05-07T04:13:04;15.10;99.90
16441;DHT22;8330;-33.858;151.184;2023-05-07T04:15:36;15.20;99.90
16441;DHT22;8330;-33.858;151.184;2023-05-07T04:18:08;15.30;99.90
16441;DHT22;8330;-33.858;151.184;2023-05-07T04:20:39;15.50;99.90
16441;DHT22;8330;-33.858;151.184;2023-05-07T04:23:10;15.60;99.90
16441;DHT22;8330;-33.858;151.184;2023-05-07T04:25:43;15.70;99.90
16441;DHT22;8330;-33.858;151.184;2023-05-07T04:28:15;15.70;99.90
16441;DHT22;8330;-33.858;151.184;2023-05-07T04:30:46;15.60;99.90
16441;DHT22;8330;-33.858;151.184;2023-05-07T04:33:17;15.60;99.90
16441;DHT22;8330;-33.858;151.184;2023-05-07T04:35:48;15.60;99.90
16441;DHT22;8330;-33.858;151.184;2023-05-07T04:38:19;15.60;99.90
16441;DHT22;8330;-33.858;151.184;2023-05-07T04:40:53;15.70;99.90
16441;DHT22;8330;-33.858;151.184;2023-05-07T04:43:24;15.90;99.90
16441;DHT22;8330;-33.858;151.184;2023-05-07T04:45:55;16.00;99.90
16441;DHT22;8330;-33.858;151.184;2023-05-07T04:48:26;16.10;99.90
16441;DHT22;8330;-33.858;151.184;2023-05-07T04:50:58;16.10;99.90
16441;DHT22;8330;-33.858;151.184;2023-05-07T04:53:29;16.20;99.90
16441;DHT22;8330;-33.858;151.184;2023-05-07T04:56:02;16.30;99.10
16441;DHT22;8330;-33.858;151.184;2023-05-07T04:58:33;16.30;99.90
16441;DHT22;8330;-33.858;151.184;2023-05-07T05:01:04;16.40;95.80
16441;DHT22;8330;-33.858;151.184;2023-05-07T05:03:36;16.30;90.80
16441;DHT22;8330;-33.858;151.184;2023-05-07T05:06:07;16.40;90.00
16441;DHT22;8330;-33.858;151.184;2023-05-07T05:08:38;16.40;86.20
16441;DHT22;8330;-33.858;151.184;2023-05-07T05:11:11;16.40;84.30
16441;DHT22;8330;-33.858;151.184;2023-05-07T05:13:43;16.40;83.70
16441;DHT22;8330;-33.858;151.184;2023-05-07T05:16:16;16.40;83.60
16441;DHT22;8330;-33.858;151.184;2023-05-07T05:18:47;16.40;83.60
16441;DHT22;8330;-33.858;151.184;2023-05-07T05:21:19;16.40;79.00
16441;DHT22;8330;-33.858;151.184;2023-05-07T05:23:50;16.40;74.30
16441;DHT22;8330;-33.858;151.184;2023-05-07T05:26:23;16.20;73.60
16441;DHT22;8330;-33.858;151.184;2023-05-07T05:28:54;16.30;77.50
16441;DHT22;8330;-33.858;151.184;2023-05-07T05:31:25;16.50;78.70
16441;DHT22;8330;-33.858;151.184;2023-05-07T05:33:57;16.70;81.80
16441;DHT22;8330;-33.858;151.184;2023-05-07T05:36:28;16.80;78.80
16441;DHT22;8330;-33.858;151.184;2023-05-07T05:38:59;16.80;75.20
16441;DHT22;8330;-33.858;151.184;2023-05-07T05:41:32;16.70;72.70
16441;DHT22;8330;-33.858;151.184;2023-05-07T05:44:03;16.60;74.00
16441;DHT22;8330;-33.858;151.184;2023-05-07T05:46:36;16.50;75.70
16441;DHT22;8330;-33.858;151.184;2023-05-07T05:49:08;16.60;75.70
16441;DHT22;8330;-33.858;151.184;2023-05-07T05:51:39;16.60;75.10
16441;DHT22;8330;-33.858;151.184;2023-05-07T05:54:12;16.60;74.50
16441;DHT22;8330;-33.858;151.184;2023-05-07T05:56:45;16.70;77.20
16441;DHT22;8330;-33.858;151.184;2023-05-07T05:59:17;16.70;76.30
16441;DHT22;8330;-33.858;151.184;2023-05-07T06:01:48;16.70;76.80
16441;DHT22;8330;-33.858;151.184;2023-05-07T06:04:21;16.80;75.30
16441;DHT22;8330;-33.858;151.184;2023-05-07T06:06:52;16.60;73.90
16441;DHT22;8330;-33.858;151.184;2023-05-07T06:09:24;16.60;75.70
16441;DHT22;8330;-33.858;151.184;2023-05-07T06:11:57;16.80;75.70
16441;DHT22;8330;-33.858;151.184;2023-05-07T06:14:28;17.00;72.20
16441;DHT22;8330;-33.858;151.184;2023-05-07T06:17:00;16.70;72.00
16441;DHT22;8330;-33.858;151.184;2023-05-07T06:19:31;16.80;73.00
16441;DHT22;8330;-33.858;151.184;2023-05-07T06:22:02;16.50;73.20
16441;DHT22;8330;-33.858;151.184;2023-05-07T06:24:33;16.50;75.60
16441;DHT22;8330;-33.858;151.184;2023-05-07T06:27:07;16.50;75.60
16441;DHT22;8330;-33.858;151.184;2023-05-07T06:29:38;16.50;74.10
16441;DHT22;8330;-33.858;151.184;2023-05-07T06:32:10;16.30;74.80
16441;DHT22;8330;-33.858;151.184;2023-05-07T06:34:45;16.20;76.00
16441;DHT22;8330;-33.858;151.184;2023-05-07T06:37:16;16.00;76.70
16441;DHT22;8330;-33.858;151.184;2023-05-07T06:39:48;15.90;78.40
16441;DHT22;8330;-33.858;151.184;2023-05-07T06:42:22;15.70;80.10
16441;DHT22;8330;-33.858;151.184;2023-05-07T06:44:53;15.60;82.10
16441;DHT22;8330;-33.858;151.184;2023-05-07T06:47:24;15.50;81.90
16441;DHT22;8330;-33.858;151.184;2023-05-07T06:49:55;15.40;83.30
16441;DHT22;8330;-33.858;151.184;2023-05-07T06:52:26;15.30;83.60
16441;DHT22;8330;-33.858;151.184;2023-05-07T06:55:00;15.30;84.60
16441;DHT22;8330;-33.858;151.184;2023-05-07T06:57:33;15.30;86.00
16441;DHT22;8330;-33.858;151.184;2023-05-07T07:00:04;15.40;88.00
16441;DHT22;8330;-33.858;151.184;2023-05-07T07:02:36;15.30;86.70
16441;DHT22;8330;-33.858;151.184;2023-05-07T07:05:08;15.20;85.80
16441;DHT22;8330;-33.858;151.184;2023-05-07T07:07:42;15.10;86.40
16441;DHT22;8330;-33.858;151.184;2023-05-07T07:10:20;15.00;85.70
16441;DHT22;8330;-33.858;151.184;2023-05-07T07:12:53;14.80;86.20
16441;DHT22;8330;-33.858;151.184;2023-05-07T07:15:24;14.80;86.80
16441;DHT22;8330;-33.858;151.184;2023-05-07T07:17:56;14.60;87.50
16441;DHT22;8330;-33.858;151.184;2023-05-07T07:20:27;14.50;88.20
16441;DHT22;8330;-33.858;151.184;2023-05-07T07:22:58;14.50;89.00
16441;DHT22;8330;-33.858;151.184;2023-05-07T07:25:29;14.50;89.10
16441;DHT22;8330;-33.858;151.184;2023-05-07T07:28:02;14.50;90.20
16441;DHT22;8330;-33.858;151.184;2023-05-07T07:30:33;14.40;90.80
16441;DHT22;8330;-33.858;151.184;2023-05-07T07:33:05;14.30;91.30
16441;DHT22;8330;-33.858;151.184;2023-05-07T07:35:36;14.20;91.00
16441;DHT22;8330;-33.858;151.184;2023-05-07T07:38:07;14.10;91.90
16441;DHT22;8330;-33.858;151.184;2023-05-07T07:40:39;14.10;92.40
16441;DHT22;8330;-33.858;151.184;2023-05-07T07:43:13;14.00;93.10
16441;DHT22;8330;-33.858;151.184;2023-05-07T07:45:44;14.00;94.00
16441;DHT22;8330;-33.858;151.184;2023-05-07T07:48:16;14.00;94.40
16441;DHT22;8330;-33.858;151.184;2023-05-07T07:50:51;14.00;95.20
16441;DHT22;8330;-33.858;151.184;2023-05-07T07:53:22;14.00;95.20
16441;DHT22;8330;-33.858;151.184;2023-05-07T07:55:53;13.90;95.40
16441;DHT22;8330;-33.858;151.184;2023-05-07T07:58:26;13.80;96.60
16441;DHT22;8330;-33.858;151.184;2023-05-07T08:00:58;13.80;97.00
16441;DHT22;8330;-33.858;151.184;2023-05-07T08:03:29;13.70;97.80
16441;DHT22;8330;-33.858;151.184;2023-05-07T08:06:01;13.80;97.80
16441;DHT22;8330;-33.858;151.184;2023-05-07T08:08:32;13.80;98.30
16441;DHT22;8330;-33.858;151.184;2023-05-07T08:11:04;13.80;98.70
16441;DHT22;8330;-33.858;151.184;2023-05-07T08:13:37;13.70;99.70
16441;DHT22;8330;-33.858;151.184;2023-05-07T08:16:11;13.60;99.30
16441;DHT22;8330;-33.858;151.184;2023-05-07T08:18:42;13.60;99.50
16441;DHT22;8330;-33.858;151.184;2023-05-07T08:21:13;13.60;99.90
16441;DHT22;8330;-33.858;151.184;2023-05-07T08:23:44;13.60;99.90
16441;DHT22;8330;-33.858;151.184;2023-05-07T08:26:15;13.60;99.90
16441;DHT22;8330;-33.858;151.184;2023-05-07T08:28:48;13.50;99.90
16441;DHT22;8330;-33.858;151.184;2023-05-07T08:31:20;13.60;99.90
16441;DHT22;8330;-33.858;151.184;2023-05-07T08:33:51;13.60;99.90
16441;DHT22;8330;-33.858;151.184;2023-05-07T08:36:23;13.60;99.90
16441;DHT22;8330;-33.858;151.184;2023-05-07T08:38:54;13.50;99.90
16441;DHT22;8330;-33.858;151.184;2023-05-07T08:41:27;13.40;99.90
16441;DHT22;8330;-33.858;151.184;2023-05-07T08:44:01;13.50;99.90
16441;DHT22;8330;-33.858;151.184;2023-05-07T08:46:34;13.60;99.90
16441;DHT22;8330;-33.858;151.184;2023-05-07T08:49:05;13.50;99.90
16441;DHT22;8330;-33.858;151.184;2023-05-07T08:51:36;13.50;99.90
16441;DHT22;8330;-33.858;151.184;2023-05-07T08:54:08;13.40;99.90
16441;DHT22;8330;-33.858;151.184;2023-05-07T08:56:40;13.40;99.90
16441;DHT22;8330;-33.858;151.184;2023-05-07T08:59:13;13.50;99.90
16441;DHT22;8330;-33.858;151.184;2023-05-07T09:01:44;13.50;99.90
16441;DHT22;8330;-33.858;151.184;2023-05-07T09:04:15;13.40;99.90
16441;DHT22;8330;-33.858;151.184;2023-05-07T09:06:46;13.40;99.90
16441;DHT22;8330;-33.858;151.184;2023-05-07T09:09:19;13.40;99.90
16441;DHT22;8330;-33.858;151.184;2023-05-07T09:11:57;13.40;99.90
16441;DHT22;8330;-33.858;151.184;2023-05-07T09:14:31;13.40;99.90
16441;DHT22;8330;-33.858;151.184;2023-05-07T09:17:03;13.40;99.90
16441;DHT22;8330;-33.858;151.184;2023-05-07T09:19:34;13.30;99.90
16441;DHT22;8330;-33.858;151.184;2023-05-07T09:22:05;13.40;99.90
16441;DHT22;8330;-33.858;151.184;2023-05-07T09:24:40;13.50;99.90
16441;DHT22;8330;-33.858;151.184;2023-05-07T09:27:11;13.40;99.90
16441;DHT22;8330;-33.858;151.184;2023-05-07T09:29:44;13.40;99.90
16441;DHT22;8330;-33.858;151.184;2023-05-07T09:32:16;13.50;99.90
16441;DHT22;8330;-33.858;151.184;2023-05-07T09:34:47;13.50;99.90
16441;DHT22;8330;-33.858;151.184;2023-05-07T09:37:18;13.60;99.90
16441;DHT22;8330;-33.858;151.184;2023-05-07T09:39:50;13.50;99.90
16441;DHT22;8330;-33.858;151.184;2023-05-07T09:42:24;13.50;99.90
16441;DHT22;8330;-33.858;151.184;2023-05-07T09:44:59;13.20;99.90
16441;DHT22;8330;-33.858;151.184;2023-05-07T09:47:31;13.20;99.90
16441;DHT22;8330;-33.858;151.184;2023-05-07T09:50:05;13.20;99.90
16441;DHT22;8330;-33.858;151.184;2023-05-07T09:52:40;13.20;99.90
16441;DHT22;8330;-33.858;151.184;2023-05-07T09:55:12;13.10;99.90
16441;DHT22;8330;-33.858;151.184;2023-05-07T09:57:44;13.00;99.90
16441;DHT22;8330;-33.858;151.184;2023-05-07T10:00:18;13.00;99.90
16441;DHT22;8330;-33.858;151.184;2023-05-07T10:02:51;12.80;99.90
16441;DHT22;8330;-33.858;151.184;2023-05-07T10:05:23;12.80;99.90
16441;DHT22;8330;-33.858;151.184;2023-05-07T10:07:55;12.80;99.90
16441;DHT22;8330;-33.858;151.184;2023-05-07T10:10:27;12.70;99.90
16441;DHT22;8330;-33.858;151.184;2023-05-07T10:13:03;12.50;99.90
16441;DHT22;8330;-33.858;151.184;2023-05-07T10:15:40;12.40;99.90
16441;DHT22;8330;-33.858;151.184;2023-05-07T10:18:13;12.40;99.90
16441;DHT22;8330;-33.858;151.184;2023-05-07T10:20:46;12.30;99.90
16441;DHT22;8330;-33.858;151.184;2023-05-07T10:23:23;12.30;99.90
16441;DHT22;8330;-33.858;151.184;2023-05-07T10:25:54;12.40;99.90
16441;DHT22;8330;-33.858;151.184;2023-05-07T10:28:27;12.40;99.90
16441;DHT22;8330;-33.858;151.184;2023-05-07T10:31:21;12.30;99.90
16441;DHT22;8330;-33.858;151.184;2023-05-07T10:33:56;12.30;99.90
16441;DHT22;8330;-33.858;151.184;2023-05-07T10:36:27;12.30;99.90
16441;DHT22;8330;-33.858;151.184;2023-05-07T10:39:02;12.30;99.90
16441;DHT22;8330;-33.858;151.184;2023-05-07T10:41:33;12.20;99.90
16441;DHT22;8330;-33.858;151.184;2023-05-07T10:44:06;12.20;99.90
16441;DHT22;8330;-33.858;151.184;2023-05-07T10:46:46;12.30;99.90
16441;DHT22;8330;-33.858;151.184;2023-05-07T10:49:38;12.30;99.90
16441;DHT22;8330;-33.858;151.184;2023-05-07T10:52:30;12.30;99.90
16441;DHT22;8330;-33.858;151.184;2023-05-07T10:55:21;12.30;99.90
16441;DHT22;8330;-33.858;151.184;2023-05-07T10:57:55;12.20;99.90
16441;DHT22;8330;-33.858;151.184;2023-05-07T11:00:45;12.00;99.90
16441;DHT22;8330;-33.858;151.184;2023-05-07T11:03:19;11.90;99.90
16441;DHT22;8330;-33.858;151.184;2023-05-07T11:06:10;12.10;99.90
16441;DHT22;8330;-33.858;151.184;2023-05-07T11:08:57;12.10;99.90
16441;DHT22;8330;-33.858;151.184;2023-05-07T11:11:47;12.00;99.90
16441;DHT22;8330;-33.858;151.184;2023-05-07T11:14:46;11.90;99.90
16441;DHT22;8330;-33.858;151.184;2023-05-07T11:17:17;11.80;99.90
16441;DHT22;8330;-33.858;151.184;2023-05-07T11:19:56;11.80;99.90
16441;DHT22;8330;-33.858;151.184;2023-05-07T11:22:47;11.90;99.90
16441;DHT22;8330;-33.858;151.184;2023-05-07T11:25:27;11.80;99.90
16441;DHT22;8330;-33.858;151.184;2023-05-07T11:28:06;12.00;99.90
16441;DHT22;8330;-33.858;151.184;2023-05-07T11:30:38;12.00;99.90
16441;DHT22;8330;-33.858;151.184;2023-05-07T11:33:18;11.80;99.90
16441;DHT22;8330;-33.858;151.184;2023-05-07T11:35:53;11.60;99.90
16441;DHT22;8330;-33.858;151.184;2023-05-07T11:38:30;11.20;99.90
16441;DHT22;8330;-33.858;151.184;2023-05-07T11:41:03;11.10;99.90
16441;DHT22;8330;-33.858;151.184;2023-05-07T11:43:34;10.90;99.90
16441;DHT22;8330;-33.858;151.184;2023-05-07T11:46:16;10.70;99.90
16441;DHT22;8330;-33.858;151.184;2023-05-07T11:48:49;10.70;99.90
16441;DHT22;8330;-33.858;151.184;2023-05-07T11:51:25;10.60;99.90
16441;DHT22;8330;-33.858;151.184;2023-05-07T11:53:56;10.40;99.90
16441;DHT22;8330;-33.858;151.184;2023-05-07T11:56:33;10.40;99.90
16441;DHT22;8330;-33.858;151.184;2023-05-07T11:59:04;10.40;99.90
16441;DHT22;8330;-33.858;151.184;2023-05-07T12:01:42;10.30;99.90
16441;DHT22;8330;-33.858;151.184;2023-05-07T12:04:20;10.40;99.90
16441;DHT22;8330;-33.858;151.184;2023-05-07T12:06:54;10.20;99.90
16441;DHT22;8330;-33.858;151.184;2023-05-07T12:09:26;9.90;99.90
16441;DHT22;8330;-33.858;151.184;2023-05-07T12:12:04;9.90;99.90
16441;DHT22;8330;-33.858;151.184;2023-05-07T12:14:39;9.90;99.90
16441;DHT22;8330;-33.858;151.184;2023-05-07T12:17:11;9.80;99.90
16441;DHT22;8330;-33.858;151.184;2023-05-07T12:19:44;9.70;99.90
16441;DHT22;8330;-33.858;151.184;2023-05-07T12:22:17;9.60;99.90
16441;DHT22;8330;-33.858;151.184;2023-05-07T12:24:49;9.50;99.90
16441;DHT22;8330;-33.858;151.184;2023-05-07T12:27:20;9.40;99.90
16441;DHT22;8330;-33.858;151.184;2023-05-07T12:29:51;9.50;99.90
16441;DHT22;8330;-33.858;151.184;2023-05-07T12:32:23;9.40;99.90
16441;DHT22;8330;-33.858;151.184;2023-05-07T12:34:54;9.50;99.90
16441;DHT22;8330;-33.858;151.184;2023-05-07T12:37:30;9.60;99.90
16441;DHT22;8330;-33.858;151.184;2023-05-07T12:40:09;9.70;99.90
16441;DHT22;8330;-33.858;151.184;2023-05-07T12:42:41;9.70;99.90
16441;DHT22;8330;-33.858;151.184;2023-05-07T12:45:14;9.60;99.90
16441;DHT22;8330;-33.858;151.184;2023-05-07T12:47:46;9.40;99.90
16441;DHT22;8330;-33.858;151.184;2023-05-07T12:50:17;9.50;99.90
16441;DHT22;8330;-33.858;151.184;2023-05-07T12:52:50;9.60;99.90
16441;DHT22;8330;-33.858;151.184;2023-05-07T12:55:22;9.60;99.90
16441;DHT22;8330;-33.858;151.184;2023-05-07T12:57:54;9.50;99.90
16441;DHT22;8330;-33.858;151.184;2023-05-07T13:00:35;9.60;99.90
16441;DHT22;8330;-33.858;151.184;2023-05-07T13:03:07;9.60;99.90
16441;DHT22;8330;-33.858;151.184;2023-05-07T13:05:38;9.70;99.90
16441;DHT22;8330;-33.858;151.184;2023-05-07T13:08:12;9.80;99.90
16441;DHT22;8330;-33.858;151.184;2023-05-07T13:10:43;9.80;99.90
16441;DHT22;8330;-33.858;151.184;2023-05-07T13:13:14;9.80;99.90
16441;DHT22;8330;-33.858;151.184;2023-05-07T13:15:45;9.80;99.90
16441;DHT22;8330;-33.858;151.184;2023-05-07T13:18:16;9.80;99.90
16441;DHT22;8330;-33.858;151.184;2023-05-07T13:20:48;9.80;99.90
16441;DHT22;8330;-33.858;151.184;2023-05-07T13:23:21;9.80;99.90
16441;DHT22;8330;-33.858;151.184;2023-05-07T13:25:52;9.80;99.90
16441;DHT22;8330;-33.858;151.184;2023-05-07T13:28:24;9.90;99.90
16441;DHT22;8330;-33.858;151.184;2023-05-07T13:30:55;9.90;99.90
16441;DHT22;8330;-33.858;151.184;2023-05-07T13:33:27;10.00;99.90
16441;DHT22;8330;-33.858;151.184;2023-05-07T13:35:58;10.00;99.90
16441;DHT22;8330;-33.858;151.184;2023-05-07T13:38:31;9.90;99.90
16441;DHT22;8330;-33.858;151.184;2023-05-07T13:41:02;9.90;99.90
16441;DHT22;8330;-33.858;151.184;2023-05-07T13:43:33;10.00;99.90
16441;DHT22;8330;-33.858;151.184;2023-05-07T13:46:04;10.00;99.90
16441;DHT22;8330;-33.858;151.184;2023-05-07T13:48:36;10.00;99.90
16441;DHT22;8330;-33.858;151.184;2023-05-07T13:51:07;9.90;99.90
16441;DHT22;8330;-33.858;151.184;2023-05-07T13:53:41;9.90;99.90
16441;DHT22;8330;-33.858;151.184;2023-05-07T13:56:12;10.00;99.90
16441;DHT22;8330;-33.858;151.184;2023-05-07T13:58:43;10.00;99.90
16441;DHT22;8330;-33.858;151.184;2023-05-07T14:01:16;10.00;99.90
16441;DHT22;8330;-33.858;151.184;2023-05-07T14:03:47;10.00;99.90
16441;DHT22;8330;-33.858;151.184;2023-05-07T14:06:18;10.00;99.90
16441;DHT22;8330;-33.858;151.184;2023-05-07T14:08:51;10.10;99.90
16441;DHT22;8330;-33.858;151.184;2023-05-07T14:11:25;10.10;99.90
16441;DHT22;8330;-33.858;151.184;2023-05-07T14:13:57;10.20;99.90
16441;DHT22;8330;-33.858;151.184;2023-05-07T14:16:28;10.20;99.90
16441;DHT22;8330;-33.858;151.184;2023-05-07T14:19:00;10.30;99.90
16441;DHT22;8330;-33.858;151.184;2023-05-07T14:21:31;10.30;99.90
16441;DHT22;8330;-33.858;151.184;2023-05-07T14:24:07;10.40;99.90
16441;DHT22;8330;-33.858;151.184;2023-05-07T14:26:38;10.40;99.90
16441;DHT22;8330;-33.858;151.184;2023-05-07T14:29:09;10.40;99.90
16441;DHT22;8330;-33.858;151.184;2023-05-07T14:31:40;10.50;99.90
16441;DHT22;8330;-33.858;151.184;2023-05-07T14:34:11;10.60;99.90
16441;DHT22;8330;-33.858;151.184;2023-05-07T14:36:42;10.70;99.90
16441;DHT22;8330;-33.858;151.184;2023-05-07T14:39:16;10.70;99.90
16441;DHT22;8330;-33.858;151.184;2023-05-07T14:41:47;10.70;99.90
16441;DHT22;8330;-33.858;151.184;2023-05-07T14:44:18;10.70;99.90
16441;DHT22;8330;-33.858;151.184;2023-05-07T14:46:49;10.80;99.90
16441;DHT22;8330;-33.858;151.184;2023-05-07T14:49:20;10.80;99.90
16441;DHT22;8330;-33.858;151.184;2023-05-07T14:51:51;10.80;99.90
16441;DHT22;8330;-33.858;151.184;2023-05-07T14:54:24;10.90;99.90
16441;DHT22;8330;-33.858;151.184;2023-05-07T14:56:56;10.90;99.90
16441;DHT22;8330;-33.858;151.184;2023-05-07T14:59:27;10.90;99.90
16441;DHT22;8330;-33.858;151.184;2023-05-07T15:01:58;10.90;99.90
16441;DHT22;8330;-33.858;151.184;2023-05-07T15:04:29;11.00;99.90
16441;DHT22;8330;-33.858;151.184;2023-05-07T15:07:01;11.00;99.90
16441;DHT22;8330;-33.858;151.184;2023-05-07T15:09:34;11.00;99.90
16441;DHT22;8330;-33.858;151.184;2023-05-07T15:12:05;11.10;99.90
16441;DHT22;8330;-33.858;151.184;2023-05-07T15:14:37;11.10;99.90
16441;DHT22;8330;-33.858;151.184;2023-05-07T15:17:08;11.10;99.90
16441;DHT22;8330;-33.858;151.184;2023-05-07T15:19:39;11.20;99.90
16441;DHT22;8330;-33.858;151.184;2023-05-07T15:22:10;11.20;99.90
16441;DHT22;8330;-33.858;151.184;2023-05-07T15:24:43;11.30;99.90
16441;DHT22;8330;-33.858;151.184;2023-05-07T15:27:14;11.40;99.90
16441;DHT22;8330;-33.858;151.184;2023-05-07T15:29:46;11.40;99.90
16441;DHT22;8330;-33.858;151.184;2023-05-07T15:32:17;11.50;99.90
16441;DHT22;8330;-33.858;151.184;2023-05-07T15:34:48;11.60;99.90
16441;DHT22;8330;-33.858;151.184;2023-05-07T15:37:20;11.70;99.90